createdAt,value
2022-10-17T00:00:59.166Z,82.71
2022-10-17T00:04:02.055Z,82.47
2022-10-17T00:07:05.006Z,82.50
2022-10-17T00:10:08.771Z,83.10
2022-10-17T00:13:12.628Z,84.01
2022-10-17T00:16:23.519Z,84.32
2022-10-17T00:19:26.286Z,84.45
2022-10-17T00:22:29.082Z,85.05
2022-10-17T00:25:32.160Z,84.85
2022-10-17T00:28:35.113Z,85.02
2022-10-17T00:31:37.960Z,85.31
2022-10-17T00:34:40.912Z,85.30
2022-10-17T00:37:43.647Z,85.18
2022-10-17T00:40:46.986Z,85.40
2022-10-17T00:43:59.678Z,85.09
2022-10-17T00:47:06.556Z,84.16
2022-10-17T00:50:13.295Z,83.26
2022-10-17T00:53:17.124Z,83.25
2022-10-17T00:56:21.370Z,82.35
2022-10-17T00:59:25.174Z,82.82
2022-10-17T01:02:28.829Z,82.95
2022-10-17T01:05:32.323Z,83.44
2022-10-17T01:08:35.752Z,83.44
2022-10-17T01:11:38.467Z,82.81
2022-10-17T01:14:55.158Z,82.70
2022-10-17T01:18:15.970Z,83.13
2022-10-17T01:21:32.016Z,83.22
2022-10-17T01:25:05.703Z,82.56
2022-10-17T01:28:22.982Z,82.82
2022-10-17T01:31:38.419Z,82.65
2022-10-17T01:35:17.389Z,82.59
2022-10-17T01:38:34.575Z,82.58
2022-10-17T01:41:47.103Z,82.37
2022-10-17T01:44:56.182Z,82.18
2022-10-17T01:48:03.717Z,81.97
2022-10-17T01:51:12.539Z,81.22
2022-10-17T01:54:22.397Z,81.82
2022-10-17T01:57:33.470Z,81.64
2022-10-17T02:00:38.047Z,81.70
2022-10-17T02:03:43.850Z,81.68
2022-10-17T02:06:46.703Z,82.01
2022-10-17T02:09:49.760Z,82.31
2022-10-17T02:13:02.282Z,82.18
2022-10-17T02:16:11.809Z,82.44
2022-10-17T02:19:39.524Z,82.55
2022-10-17T02:22:56.517Z,82.80
2022-10-17T02:26:21.649Z,83.16
2022-10-17T02:29:40.795Z,83.08
2022-10-17T02:33:13.108Z,82.86
2022-10-17T02:36:22.140Z,83.20
2022-10-17T02:39:27.044Z,83.09
2022-10-17T02:42:32.851Z,82.93
2022-10-17T02:45:38.050Z,83.03
2022-10-17T02:48:47.338Z,83.07
2022-10-17T02:52:05.135Z,83.16
2022-10-17T02:55:08.848Z,83.76
2022-10-17T02:58:43.291Z,83.74
2022-10-17T03:01:46.914Z,83.82
2022-10-17T03:04:49.883Z,84.04
2022-10-17T03:07:53.714Z,83.69
2022-10-17T03:10:56.691Z,83.57
2022-10-17T03:14:00.258Z,83.19
2022-10-17T03:17:03.682Z,83.43
2022-10-17T03:20:08.013Z,83.74
2022-10-17T03:23:10.922Z,83.38
2022-10-17T03:26:13.698Z,83.99
2022-10-17T03:29:16.493Z,84.01
2022-10-17T03:32:19.582Z,83.92
2022-10-17T03:35:23.225Z,83.71
2022-10-17T03:38:26.741Z,83.53
2022-10-17T03:41:29.495Z,82.69
2022-10-17T03:44:32.488Z,83.13
2022-10-17T03:47:35.725Z,82.63
2022-10-17T03:50:39.581Z,82.79
2022-10-17T03:53:42.811Z,82.41
2022-10-17T03:56:45.732Z,82.68
2022-10-17T03:59:53.081Z,83.33
2022-10-17T04:02:58.490Z,83.66
2022-10-17T04:06:04.962Z,83.88
2022-10-17T04:09:11.304Z,83.80
2022-10-17T04:12:24.255Z,84.30
2022-10-17T04:15:27.103Z,84.23
2022-10-17T04:18:30.252Z,84.61
2022-10-17T04:21:33.587Z,84.30
2022-10-17T04:24:41.331Z,84.12
2022-10-17T04:28:01.161Z,83.91
2022-10-17T04:31:06.687Z,82.54
2022-10-17T04:34:15.741Z,83.08
2022-10-17T04:37:18.742Z,83.07
2022-10-17T04:40:22.953Z,83.34
2022-10-17T04:43:27.792Z,82.93
2022-10-17T04:46:31.039Z,82.89
2022-10-17T04:49:33.788Z,84.04
2022-10-17T04:52:44.081Z,83.96
2022-10-17T04:55:48.133Z,83.75
2022-10-17T04:58:52.492Z,83.98
2022-10-17T05:01:55.625Z,84.14
2022-10-17T05:04:58.849Z,84.62
2022-10-17T05:08:01.705Z,84.63
2022-10-17T05:11:20.118Z,84.27
2022-10-17T05:14:23.403Z,84.35
2022-10-17T05:17:27.977Z,84.13
2022-10-17T05:20:31.299Z,84.06
2022-10-17T05:23:34.484Z,83.99
2022-10-17T05:26:37.404Z,84.61
2022-10-17T05:29:40.188Z,84.41
2022-10-17T05:32:55.093Z,84.46
2022-10-17T05:35:58.496Z,83.83
2022-10-17T05:39:01.619Z,83.79
2022-10-17T05:42:05.502Z,83.53
2022-10-17T05:45:09.870Z,82.99
2022-10-17T05:48:12.852Z,82.10
2022-10-17T05:51:15.783Z,82.03
2022-10-17T05:54:22.428Z,81.34
2022-10-17T06:12:46.238Z,79.57
2022-10-17T06:15:52.818Z,79.46
2022-10-17T06:18:56.066Z,78.25
2022-10-17T06:22:00.042Z,78.44
2022-10-17T06:25:04.273Z,77.68
2022-10-17T06:28:07.619Z,77.55
2022-10-17T06:31:14.076Z,76.14
2022-10-17T06:34:20.973Z,76.21
2022-10-17T06:37:23.981Z,75.53
2022-10-17T06:40:26.839Z,67.00
2022-10-17T06:43:30.660Z,60.28
2022-10-17T06:46:53.366Z,55.18
2022-10-17T06:49:57.511Z,50.01
2022-10-17T06:53:07.813Z,48.33
2022-10-17T06:56:44.856Z,43.88
2022-10-17T07:00:23.534Z,43.13
2022-10-17T07:03:30.335Z,42.16
2022-10-17T07:06:34.098Z,39.73
2022-10-17T07:09:42.972Z,39.27
2022-10-17T07:12:46.531Z,34.42
2022-10-17T07:15:49.496Z,33.96
2022-10-17T07:18:54.520Z,34.40
2022-10-17T07:21:57.548Z,31.45
2022-10-17T07:25:13.096Z,32.36
2022-10-17T07:28:31.225Z,32.48
2022-10-17T07:31:38.952Z,33.35
2022-10-17T07:34:42.111Z,31.16
2022-10-17T07:37:46.363Z,32.94
2022-10-17T07:40:56.138Z,35.79
2022-10-17T07:43:59.045Z,33.75
2022-10-17T07:47:07.944Z,32.73
2022-10-17T07:50:12.562Z,31.81
2022-10-17T07:53:15.760Z,34.49
2022-10-17T07:56:18.591Z,34.15
2022-10-17T07:59:21.640Z,33.02
2022-10-17T08:02:28.681Z,30.37
2022-10-17T08:05:32.598Z,29.41
2022-10-17T08:08:35.648Z,29.52
2022-10-17T08:11:38.740Z,26.48
2022-10-17T08:14:42.497Z,26.42
2022-10-17T08:17:45.265Z,25.82
2022-10-17T08:20:48.815Z,26.20
2022-10-17T08:23:51.641Z,26.95
2022-10-17T08:26:54.523Z,24.67
2022-10-17T08:30:04.898Z,27.70
2022-10-17T08:33:08.423Z,25.66
2022-10-17T08:36:14.237Z,24.81
2022-10-17T08:39:17.026Z,24.86
2022-10-17T08:42:31.935Z,22.99
2022-10-17T08:46:00.450Z,25.43
2022-10-17T08:49:10.039Z,23.14
2022-10-17T08:53:03.259Z,24.12
2022-10-17T09:01:44.504Z,23.55
2022-10-17T09:05:14.388Z,22.08
2022-10-17T09:08:22.996Z,21.08
2022-10-17T09:11:32.516Z,21.66
2022-10-17T09:14:51.804Z,19.37
2022-10-17T09:18:16.672Z,21.36
2022-10-17T09:21:37.775Z,20.62
2022-10-17T09:24:49.998Z,21.16
2022-10-17T09:28:24.887Z,19.93
2022-10-17T09:31:36.033Z,20.55
2022-10-17T09:34:40.196Z,21.95
2022-10-17T09:37:46.688Z,20.58
2022-10-17T09:41:02.194Z,20.29
2022-10-17T09:44:25.877Z,19.69
2022-10-17T09:47:42.435Z,19.63
2022-10-17T09:51:21.768Z,19.20
2022-10-17T09:54:41.707Z,19.10
2022-10-17T09:57:57.923Z,18.53
2022-10-17T10:01:21.030Z,18.58
2022-10-17T10:04:30.547Z,17.38
2022-10-17T10:07:40.065Z,18.89
2022-10-17T10:10:44.478Z,17.34
2022-10-17T10:13:49.350Z,17.73
2022-10-17T10:16:53.873Z,16.83
2022-10-17T10:19:57.102Z,16.68
2022-10-17T10:23:10.032Z,18.07
2022-10-17T10:26:25.968Z,17.26
2022-10-17T10:29:36.855Z,17.71
2022-10-17T10:32:40.357Z,16.57
2022-10-17T10:35:43.273Z,16.16
2022-10-17T10:38:53.799Z,16.74
2022-10-17T10:41:57.251Z,15.55
2022-10-17T10:45:35.984Z,17.41
2022-10-17T10:48:54.087Z,16.71
2022-10-17T10:52:02.107Z,18.64
2022-10-17T10:55:39.464Z,16.01
2022-10-17T10:59:15.465Z,17.23
2022-10-17T11:02:39.635Z,15.63
2022-10-17T11:06:29.195Z,16.98
2022-10-17T11:09:56.728Z,15.36
2022-10-17T11:13:29.886Z,15.42
2022-10-17T11:16:46.010Z,14.01
2022-10-17T11:20:04.632Z,13.47
2022-10-17T11:23:21.790Z,14.04
2022-10-17T11:26:31.886Z,14.02
2022-10-17T11:29:41.269Z,13.94
2022-10-17T11:32:54.233Z,14.27
2022-10-17T11:36:04.769Z,14.01
2022-10-17T11:39:49.501Z,14.92
2022-10-17T11:43:00.564Z,14.88
2022-10-17T11:46:22.908Z,15.53
2022-10-17T11:49:32.084Z,15.21
2022-10-17T11:52:56.336Z,14.38
2022-10-17T11:56:01.834Z,14.24
2022-10-17T11:59:29.885Z,13.90
2022-10-17T12:02:35.749Z,15.39
2022-10-17T12:06:00.148Z,14.53
2022-10-17T12:09:18.327Z,14.50
2022-10-17T12:12:33.409Z,15.83
2022-10-17T12:15:36.509Z,15.96
2022-10-17T12:18:39.406Z,16.30
2022-10-17T12:22:20.338Z,15.14
2022-10-17T12:25:33.780Z,15.83
2022-10-17T12:28:44.793Z,16.21
2022-10-17T12:31:47.635Z,15.40
2022-10-17T12:34:55.130Z,15.55
2022-10-17T12:38:02.387Z,16.13
2022-10-17T12:41:06.091Z,17.15
2022-10-17T12:44:18.195Z,15.47
2022-10-17T12:47:40.163Z,16.94
2022-10-17T12:54:53.581Z,17.42
2022-10-17T12:58:14.513Z,16.52
2022-10-17T13:01:34.390Z,17.52
2022-10-17T13:04:37.615Z,18.08
2022-10-17T13:08:03.543Z,17.02
2022-10-17T13:11:55.016Z,17.08
2022-10-17T13:14:34.225Z,17.62
2022-10-17T13:17:40.618Z,17.90
2022-10-17T13:21:01.749Z,19.10
2022-10-17T13:24:25.529Z,16.48
2022-10-17T13:27:30.039Z,16.87
2022-10-17T13:30:37.612Z,18.64
2022-10-17T13:33:42.407Z,17.38
2022-10-17T13:36:53.694Z,17.44
2022-10-17T13:40:00.297Z,17.40
2022-10-17T13:43:18.845Z,17.19
2022-10-17T13:46:39.527Z,20.72
2022-10-17T13:49:44.614Z,21.34
2022-10-17T13:52:47.414Z,20.67
2022-10-17T13:56:09.771Z,18.90
2022-10-17T13:59:26.165Z,18.84
2022-10-17T14:02:31.469Z,18.96
2022-10-17T14:05:34.530Z,20.07
2022-10-17T14:08:46.174Z,19.74
2022-10-17T14:12:01.167Z,19.62
2022-10-17T14:15:11.893Z,19.69
2022-10-17T14:18:21.369Z,21.38
2022-10-17T14:21:43.805Z,21.27
2022-10-17T14:24:48.804Z,21.14
2022-10-17T14:28:08.126Z,21.79
2022-10-17T14:31:34.221Z,21.13
2022-10-17T14:34:40.653Z,22.09
2022-10-17T14:37:51.918Z,24.64
2022-10-17T14:41:41.926Z,26.98
2022-10-17T14:44:52.930Z,28.79
2022-10-17T14:48:00.772Z,28.87
2022-10-17T14:51:16.607Z,29.75
2022-10-17T14:54:26.731Z,29.71
2022-10-17T14:57:44.236Z,30.39
2022-10-17T15:00:47.639Z,31.26
2022-10-17T15:03:50.523Z,31.56
2022-10-17T15:06:56.469Z,32.05
2022-10-17T15:09:59.167Z,31.93
2022-10-17T15:13:27.139Z,32.27
2022-10-17T15:16:31.028Z,32.64
2022-10-17T15:19:33.927Z,32.94
2022-10-17T15:22:36.734Z,33.31
2022-10-17T15:25:40.218Z,34.05
2022-10-17T15:28:43.415Z,33.87
2022-10-17T15:31:46.573Z,34.34
2022-10-17T15:34:49.515Z,35.02
2022-10-17T15:37:52.458Z,35.24
2022-10-17T15:40:55.591Z,35.78
2022-10-17T15:43:58.838Z,36.30
2022-10-17T15:47:01.949Z,37.55
2022-10-17T15:50:07.047Z,37.82
2022-10-17T15:53:13.182Z,38.86
2022-10-17T15:56:20.194Z,39.59
2022-10-17T15:59:32.499Z,40.37
2022-10-17T16:02:35.306Z,40.91
2022-10-17T16:05:38.075Z,42.99
2022-10-17T16:08:40.890Z,43.82
2022-10-17T16:11:45.426Z,44.59
2022-10-17T16:14:48.122Z,45.86
2022-10-17T16:17:52.504Z,45.74
2022-10-17T16:20:55.916Z,47.00
2022-10-17T16:23:59.273Z,47.67
2022-10-17T16:27:03.229Z,48.66
2022-10-17T16:30:08.032Z,46.20
2022-10-17T16:33:15.388Z,46.61
2022-10-17T16:36:19.101Z,46.53
2022-10-17T16:39:22.074Z,47.46
2022-10-17T16:42:25.080Z,48.09
2022-10-17T16:45:28.148Z,49.73
2022-10-17T16:48:31.149Z,49.63
2022-10-17T16:51:35.997Z,49.42
2022-10-17T16:54:39.520Z,49.18
2022-10-17T17:00:48.577Z,46.90
2022-10-17T17:03:53.429Z,47.52
2022-10-17T17:07:02.523Z,47.12
2022-10-17T17:10:06.787Z,48.30
2022-10-17T17:13:10.064Z,48.27
2022-10-17T17:16:16.453Z,48.43
2022-10-17T17:19:20.501Z,48.45
2022-10-17T17:22:23.482Z,50.77
2022-10-17T17:25:26.651Z,50.76
2022-10-17T17:28:30.864Z,50.20
2022-10-17T17:31:35.500Z,49.84
2022-10-17T17:34:41.607Z,50.26
2022-10-17T17:37:44.501Z,50.74
2022-10-17T17:40:50.659Z,51.99
2022-10-17T17:43:56.207Z,53.46
2022-10-17T17:46:59.065Z,53.42
2022-10-17T17:50:03.365Z,53.00
2022-10-17T17:53:07.093Z,52.20
2022-10-17T17:56:16.512Z,51.62
2022-10-17T17:59:19.400Z,51.47
2022-10-17T18:02:22.233Z,52.18
2022-10-17T18:05:24.966Z,51.90
2022-10-17T18:08:27.728Z,51.60
2022-10-17T18:11:30.473Z,51.60
2022-10-17T18:14:33.218Z,51.98
2022-10-17T18:17:36.105Z,52.55
2022-10-17T18:20:42.853Z,52.88
2022-10-17T18:23:48.591Z,52.63
2022-10-17T18:26:54.057Z,52.59
2022-10-17T18:29:57.146Z,52.93
2022-10-17T18:32:59.901Z,53.16
2022-10-17T18:36:07.164Z,52.94
2022-10-17T18:39:10.452Z,52.99
2022-10-17T18:42:13.430Z,53.06
2022-10-17T18:45:17.511Z,53.89
2022-10-17T18:48:20.320Z,54.03
2022-10-17T18:51:25.327Z,54.64
2022-10-17T18:54:29.407Z,54.76
2022-10-17T18:57:32.549Z,56.06
2022-10-17T19:00:36.970Z,55.42
2022-10-17T19:03:39.702Z,56.16
2022-10-17T19:06:44.643Z,55.91
2022-10-17T19:09:48.756Z,56.49
2022-10-17T19:12:51.525Z,56.30
2022-10-17T19:15:54.312Z,55.85
2022-10-17T19:19:06.108Z,56.79
2022-10-17T19:22:09.658Z,56.84
2022-10-17T19:25:12.718Z,57.13
2022-10-17T19:28:15.547Z,57.90
2022-10-17T19:31:24.085Z,58.30
2022-10-17T19:34:29.610Z,58.79
2022-10-17T19:37:32.939Z,59.62
2022-10-17T19:40:41.086Z,60.69
2022-10-17T19:43:44.188Z,61.07
2022-10-17T19:46:49.246Z,61.52
2022-10-17T19:49:52.269Z,62.07
2022-10-17T19:52:55.038Z,62.52
2022-10-17T19:55:58.390Z,62.83
2022-10-17T19:59:01.492Z,63.22
2022-10-17T20:02:04.658Z,63.72
2022-10-17T20:05:21.612Z,64.35
2022-10-17T20:11:34.644Z,64.62
2022-10-17T20:14:40.817Z,64.51
2022-10-17T20:17:43.936Z,64.71
2022-10-17T20:20:46.803Z,64.03
2022-10-17T20:23:51.041Z,64.45
2022-10-17T20:26:53.823Z,64.63
2022-10-17T20:30:01.829Z,64.75
2022-10-17T20:33:04.964Z,65.29
2022-10-17T20:36:09.899Z,65.64
2022-10-17T20:39:14.401Z,65.99
2022-10-17T20:42:17.223Z,66.94
2022-10-17T20:45:32.024Z,67.06
2022-10-17T20:48:42.887Z,67.20
2022-10-17T20:51:46.369Z,67.57
2022-10-17T20:54:49.881Z,68.18
2022-10-17T20:57:56.000Z,68.46
2022-10-17T21:00:58.782Z,68.44
2022-10-17T21:04:21.283Z,68.63
2022-10-17T21:07:25.418Z,68.71
2022-10-17T21:10:35.452Z,68.66
2022-10-17T21:13:38.978Z,68.49
2022-10-17T21:16:41.938Z,69.04
2022-10-17T21:19:44.582Z,68.96
2022-10-17T21:22:47.335Z,69.19
2022-10-17T21:25:50.063Z,68.75
2022-10-17T21:28:53.103Z,69.17
2022-10-17T21:31:56.367Z,70.20
2022-10-17T21:34:59.118Z,69.88
2022-10-17T21:38:01.845Z,71.38
2022-10-17T21:41:06.715Z,71.10
2022-10-17T21:44:18.245Z,71.23
2022-10-17T21:47:23.262Z,71.35
2022-10-17T21:50:29.714Z,70.55
2022-10-17T21:53:32.926Z,71.11
2022-10-17T21:56:36.503Z,71.16
2022-10-17T21:59:40.044Z,71.03
2022-10-17T22:02:42.819Z,71.31
2022-10-17T22:05:45.638Z,71.53
2022-10-17T22:08:48.670Z,72.27
2022-10-17T22:11:54.794Z,72.24
2022-10-17T22:14:57.484Z,71.60
2022-10-17T22:18:00.256Z,72.34
2022-10-17T22:21:03.760Z,72.84
2022-10-17T22:24:08.686Z,72.88
2022-10-17T22:27:11.506Z,73.18
2022-10-17T22:30:14.294Z,71.55
2022-10-17T22:33:17.568Z,70.89
2022-10-17T22:36:20.678Z,71.83
2022-10-17T22:39:23.380Z,72.07
2022-10-17T22:42:26.188Z,72.71
2022-10-17T22:45:28.980Z,73.36
2022-10-17T22:48:31.988Z,73.85
2022-10-17T22:51:34.848Z,74.34
2022-10-17T22:54:37.560Z,75.02
2022-10-17T22:57:41.021Z,75.27
2022-10-17T23:00:44.026Z,75.06
2022-10-17T23:03:47.064Z,75.04
2022-10-17T23:06:49.850Z,75.13
2022-10-17T23:09:53.066Z,75.81
2022-10-17T23:12:55.911Z,75.89
2022-10-17T23:15:58.924Z,76.08
2022-10-17T23:19:01.877Z,76.15
2022-10-17T23:22:06.206Z,77.02
2022-10-17T23:25:09.235Z,77.27
2022-10-17T23:28:12.404Z,77.90
2022-10-17T23:31:20.867Z,77.78
2022-10-17T23:34:23.602Z,77.87
2022-10-17T23:37:26.320Z,79.12
2022-10-17T23:40:29.439Z,79.05
2022-10-17T23:43:34.534Z,79.11
2022-10-17T23:46:37.506Z,79.04
2022-10-17T23:49:40.290Z,79.36
2022-10-17T23:52:43.211Z,79.54
2022-10-17T23:55:45.998Z,79.30
2022-10-17T23:58:49.016Z,79.88
